Time;durP1;ratioP1;P1;durP2;ratioP2;P2;SDS_P1;SDS_P2;PMS_P1;PMS_P2;Temp;Humidity;BMP_temperature;BMP_pressure;BME280_temperature;BME280_humidity;BME280_pressure;Samples;Min_cycle;Max_cycle;Signal;HPM_P1;HPM_P2
2022/04/12 00:00:06;;;;;;;19.20;12.40;;;;;;;4.37;69.35;100733.70;105562;1279;26681;-77
2022/04/12 00:02:40;;;;;;;16.90;12.20;;;;;;;4.39;69.35;100736.88;105463;1279;25365;-76
2022/04/12 00:05:11;;;;;;;16.60;12.90;;;;;;;4.39;69.23;100738.27;105499;1280;24308;-76
2022/04/12 00:07:56;;;;;;;15.20;12.10;;;;;;;4.36;69.07;100745.02;105456;1279;24445;-77
2022/04/12 00:10:23;;;;;;;20.10;13.80;;;;;;;4.32;69.17;100747.20;105658;1278;25368;-76
2022/04/12 00:12:51;;;;;;;16.80;11.50;;;;;;;4.32;69.22;100746.67;105598;1279;22561;-76
2022/04/12 00:15:17;;;;;;;15.00;11.00;;;;;;;4.27;69.25;100748.30;105561;1281;22567;-80
2022/04/12 00:20:30;;;;;;;15.00;11.60;;;;;;;4.15;69.39;100740.87;105715;1277;22554;-79
2022/04/12 00:22:59;;;;;;;16.00;12.60;;;;;;;4.09;69.37;100744.25;105865;1276;22893;-77
2022/04/12 00:25:27;;;;;;;17.10;13.40;;;;;;;4.08;69.61;100749.63;105776;1279;22590;-77
2022/04/12 00:27:56;;;;;;;19.00;13.30;;;;;;;4.07;69.52;100746.30;105734;1276;22535;-81
2022/04/12 00:30:24;;;;;;;20.90;13.30;;;;;;;4.05;69.70;100747.29;105767;1276;24221;-79
2022/04/12 00:32:52;;;;;;;17.80;11.60;;;;;;;4.06;69.78;100747.30;105737;1277;24222;-79
2022/04/12 00:35:21;;;;;;;17.60;12.90;;;;;;;4.10;69.76;100747.23;105715;1276;25446;-76
2022/04/12 00:37:50;;;;;;;16.60;12.60;;;;;;;4.11;69.65;100750.21;105812;1278;22533;-79
2022/04/12 00:40:18;;;;;;;17.90;14.10;;;;;;;4.11;69.52;100750.03;105967;1276;22482;-77
2022/04/12 00:42:46;;;;;;;16.10;12.00;;;;;;;4.05;69.48;100754.95;105972;1276;25406;-76
2022/04/12 00:45:13;;;;;;;15.20;12.00;;;;;;;3.94;69.40;100750.53;106054;1276;24228;-78
2022/04/12 00:47:41;;;;;;;18.80;12.10;;;;;;;3.89;69.80;100748.14;105918;1277;24267;-79
2022/04/12 00:50:10;;;;;;;14.20;11.90;;;;;;;3.85;69.72;100751.16;106292;1276;22570;-75
2022/04/12 00:52:44;;;;;;;16.20;11.90;;;;;;;3.74;69.74;100756.30;106512;1276;25358;-74
2022/04/12 00:55:11;;;;;;;14.80;11.50;;;;;;;3.69;69.91;100751.48;106781;1276;25310;-75
2022/04/12 00:57:39;;;;;;;16.70;11.80;;;;;;;3.69;70.07;100750.61;106527;1279;25229;-76
2022/04/12 01:00:09;;;;;;;18.80;12.10;;;;;;;3.70;70.12;100751.34;105634;1281;23935;-76
2022/04/12 01:02:36;;;;;;;16.10;11.20;;;;;;;3.71;70.03;100754.31;105854;1281;24381;-76
2022/04/12 01:05:05;;;;;;;16.50;12.00;;;;;;;3.67;69.89;100747.77;106049;1281;24359;-75
2022/04/12 01:07:32;;;;;;;14.60;11.10;;;;;;;3.60;70.17;100751.79;105440;1281;22545;-75
2022/04/12 01:09:59;;;;;;;17.40;12.20;;;;;;;3.56;70.18;100752.39;105427;1282;22651;-79
2022/04/12 01:12:28;;;;;;;16.90;12.30;;;;;;;3.56;70.29;100754.45;105496;1281;22552;-77
2022/04/12 01:15:19;;;;;;;17.10;12.20;;;;;;;3.56;70.31;100755.52;105391;1282;25655;-80
2022/04/12 01:17:47;;;;;;;16.70;11.90;;;;;;;3.62;70.43;100761.58;105413;1279;22541;-79
2022/04/12 01:20:16;;;;;;;18.00;13.40;;;;;;;3.60;69.96;100759.62;105858;1277;24336;-76
2022/04/12 01:23:06;;;;;;;15.10;12.50;;;;;;;3.54;70.01;100765.38;105770;1279;22701;-78
2022/04/12 01:25:33;;;;;;;16.90;12.90;;;;;;;3.45;69.97;100767.61;105908;1276;25374;-76
2022/04/12 01:28:00;;;;;;;17.60;13.20;;;;;;;3.48;70.14;100767.50;105991;1276;22528;-77
2022/04/12 01:30:27;;;;;;;17.30;13.00;;;;;;;3.41;70.00;100767.67;105769;1276;23677;-73
2022/04/12 01:32:54;;;;;;;15.20;12.20;;;;;;;3.38;70.11;100768.98;105202;1282;22954;-74
2022/04/12 01:35:21;;;;;;;16.80;13.00;;;;;;;3.31;70.15;100769.15;105290;1281;22552;-74
2022/04/12 01:37:48;;;;;;;16.50;12.90;;;;;;;3.27;70.16;100765.74;105254;1282;25259;-72
2022/04/12 01:40:15;;;;;;;18.90;13.40;;;;;;;3.20;70.29;100767.62;105163;1281;25391;-72
2022/04/12 01:42:42;;;;;;;18.40;13.80;;;;;;;3.22;70.59;100766.14;105319;1282;22920;-74
2022/04/12 01:45:09;;;;;;;16.80;13.00;;;;;;;3.27;70.59;100773.02;105214;1282;22575;-72
2022/04/12 01:47:36;;;;;;;16.50;12.60;;;;;;;3.27;70.42;100766.60;105326;1282;24523;-74
2022/04/12 01:50:05;;;;;;;16.10;10.90;;;;;;;3.28;70.27;100770.98;105351;1282;22734;-77
2022/04/12 01:52:33;;;;;;;18.30;11.90;;;;;;;3.30;70.17;100770.33;105651;1281;24804;-75
2022/04/12 01:55:02;;;;;;;14.80;12.00;;;;;;;3.32;70.17;100771.60;105327;1281;23972;-72
2022/04/12 01:57:29;;;;;;;15.20;12.70;;;;;;;3.33;70.11;100771.98;105498;1281;23284;-76
2022/04/12 01:59:59;;;;;;;16.40;11.90;;;;;;;3.32;70.04;100771.27;105603;1281;22526;-77
2022/04/12 02:02:26;;;;;;;15.30;11.40;;;;;;;3.30;69.94;100770.51;105295;1284;24537;-75
2022/04/12 02:04:53;;;;;;;20.10;12.20;;;;;;;3.32;70.03;100775.27;105335;1281;25354;-78
2022/04/12 02:07:20;;;;;;;16.10;12.10;;;;;;;3.26;69.62;100780.17;105397;1281;22537;-75
2022/04/12 02:09:47;;;;;;;15.90;11.00;;;;;;;3.19;69.84;100779.80;105580;1281;22557;-77
2022/04/12 02:12:14;;;;;;;19.90;11.40;;;;;;;3.14;69.94;100779.29;105683;1278;25330;-79
2022/04/12 02:14:41;;;;;;;16.60;12.60;;;;;;;3.02;69.76;100779.16;105880;1277;26495;-77
2022/04/12 02:17:08;;;;;;;15.90;11.10;;;;;;;2.91;69.87;100781.46;105761;1277;22568;-76
2022/04/12 02:19:35;;;;;;;16.70;11.70;;;;;;;2.80;69.84;100787.08;105718;1278;25568;-75
2022/04/12 02:22:05;;;;;;;16.30;11.50;;;;;;;2.70;70.13;100788.85;105755;1277;23918;-72
2022/04/12 02:24:32;;;;;;;17.10;12.80;;;;;;;2.66;70.41;100786.83;105889;1277;24797;-73
2022/04/12 02:26:59;;;;;;;14.20;11.60;;;;;;;2.65;70.57;100787.66;105795;1278;25402;-74
2022/04/12 02:29:26;;;;;;;16.40;11.50;;;;;;;2.63;70.43;100789.02;105668;1278;22722;-75
2022/04/12 02:31:53;;;;;;;19.40;13.80;;;;;;;2.58;70.57;100785.89;105765;1281;25321;-77
2022/04/12 02:34:20;;;;;;;19.60;13.40;;;;;;;2.56;70.77;100787.59;105984;1278;22552;-78
2022/04/12 02:36:47;;;;;;;19.00;12.40;;;;;;;2.50;70.63;100789.66;105145;1284;25617;-81
2022/04/12 02:39:15;;;;;;;19.10;12.60;;;;;;;2.45;70.66;100791.77;105053;1284;24291;-78
2022/04/12 02:41:41;;;;;;;17.30;13.00;;;;;;;2.47;70.93;100796.70;105167;1284;23381;-75
2022/04/12 02:44:09;;;;;;;17.30;12.60;;;;;;;2.50;70.98;100798.87;105376;1284;25296;-75
2022/04/12 02:46:35;;;;;;;17.60;13.50;;;;;;;2.51;71.01;100802.74;105551;1284;24266;-77
2022/04/12 02:49:02;;;;;;;22.00;12.80;;;;;;;2.50;70.80;100804.98;105424;1284;24329;-77
2022/04/12 02:51:29;;;;;;;20.30;13.50;;;;;;;2.43;70.84;100808.40;105491;1284;24628;-72
2022/04/12 02:53:56;;;;;;;17.50;12.40;;;;;;;2.40;71.00;100806.21;105696;1284;25354;-73
2022/04/12 02:56:23;;;;;;;17.80;14.30;;;;;;;2.32;71.00;100810.48;106027;1277;22881;-77
2022/04/12 02:58:50;;;;;;;21.30;14.60;;;;;;;2.30;71.50;100812.67;106076;1276;24255;-74
2022/04/12 03:01:17;;;;;;;22.30;15.20;;;;;;;2.35;71.58;100813.54;105799;1277;22541;-76
2022/04/12 03:03:44;;;;;;;20.90;14.90;;;;;;;2.37;71.48;100811.51;105693;1278;22624;-77
2022/04/12 03:06:11;;;;;;;17.10;13.50;;;;;;;2.40;71.60;100811.27;105719;1278;22551;-81
2022/04/12 03:08:38;;;;;;;22.40;14.80;;;;;;;2.40;71.59;100807.27;105755;1278;25247;-76
2022/04/12 03:11:05;;;;;;;19.40;15.10;;;;;;;2.46;71.65;100812.34;105830;1278;25374;-77
2022/04/12 03:13:32;;;;;;;22.40;16.70;;;;;;;2.46;71.54;100816.48;105878;1277;25295;-77
2022/04/12 03:16:00;;;;;;;20.40;16.40;;;;;;;2.43;71.38;100817.42;105928;1276;22541;-72
2022/04/12 03:18:27;;;;;;;20.10;16.60;;;;;;;2.33;71.46;100819.55;105946;1276;25436;-77
2022/04/12 03:20:54;;;;;;;18.70;15.20;;;;;;;2.24;71.70;100823.78;105841;1278;22611;-73
2022/04/12 03:23:21;;;;;;;17.30;13.60;;;;;;;2.18;71.70;100828.48;106016;1277;25512;-78
2022/04/12 03:25:50;;;;;;;17.90;13.90;;;;;;;2.10;71.77;100831.17;105921;1278;22542;-76
2022/04/12 03:28:17;;;;;;;19.30;15.80;;;;;;;2.02;72.10;100829.00;105811;1277;24224;-76
2022/04/12 03:30:44;;;;;;;24.80;16.60;;;;;;;2.03;72.34;100832.15;105920;1277;24195;-76
2022/04/12 03:33:11;;;;;;;20.10;16.70;;;;;;;2.04;72.47;100831.15;107480;1276;22534;-79
2022/04/12 03:35:38;;;;;;;18.10;15.00;;;;;;;2.04;72.43;100826.82;107615;1277;22498;-74
2022/04/12 03:38:06;;;;;;;24.40;16.40;;;;;;;1.96;72.40;100832.47;107341;1276;25685;-76
2022/04/12 03:40:32;;;;;;;19.10;14.90;;;;;;;1.95;72.55;100830.73;106475;1278;22652;-77
2022/04/12 03:43:04;;;;;;;21.80;16.60;;;;;;;1.89;72.50;100833.44;106122;1278;23597;-79
2022/04/12 03:45:32;;;;;;;20.00;15.40;;;;;;;1.84;72.56;100836.77;106243;1277;22561;-79
2022/04/12 03:48:00;;;;;;;23.10;18.00;;;;;;;1.83;72.71;100834.96;105880;1278;22964;-73
2022/04/12 03:50:28;;;;;;;21.50;17.80;;;;;;;1.82;73.03;100836.53;105511;1281;25246;-78
2022/04/12 03:52:55;;;;;;;20.40;15.60;;;;;;;1.89;73.31;100837.95;105559;1281;22586;-77
2022/04/12 03:55:31;;;;;;;22.30;17.50;;;;;;;1.95;73.13;100839.75;105736;1281;22556;-80
2022/04/12 03:58:00;;;;;;;19.20;17.00;;;;;;;1.88;72.69;100837.75;105088;1287;24233;-80
2022/04/12 04:00:30;;;;;;;24.40;18.60;;;;;;;1.84;73.02;100836.93;105339;1287;22529;-82
2022/04/12 04:02:57;;;;;;;21.50;16.90;;;;;;;1.89;73.14;100846.30;105038;1287;25988;-78
2022/04/12 04:05:26;;;;;;;22.90;16.20;;;;;;;1.92;73.09;100843.45;105341;1285;22490;-80
2022/04/12 04:07:54;;;;;;;21.10;17.00;;;;;;;1.88;72.87;100845.23;105479;1284;22965;-79
2022/04/12 04:10:22;;;;;;;20.30;15.50;;;;;;;1.84;73.08;100845.42;105866;1281;24242;-82
2022/04/12 04:12:49;;;;;;;19.00;15.40;;;;;;;1.81;73.20;100850.20;105609;1281;22537;-81
2022/04/12 04:15:18;;;;;;;22.10;17.60;;;;;;;1.79;73.24;100854.31;105536;1281;22531;-82
2022/04/12 04:17:47;;;;;;;24.60;18.80;;;;;;;1.80;73.40;100855.38;105799;1278;22542;-82
2022/04/12 04:20:18;;;;;;;21.90;17.80;;;;;;;1.79;73.56;100855.00;106094;1277;24226;-82
2022/04/12 04:22:46;;;;;;;22.80;17.90;;;;;;;1.83;73.56;100852.87;105885;1277;22552;-82
2022/04/12 04:25:15;;;;;;;26.70;17.90;;;;;;;1.84;73.48;100856.54;105931;1278;22641;-84
2022/04/12 04:27:45;;;;;;;23.70;17.90;;;;;;;1.83;73.46;100854.77;105932;1276;25274;-80
2022/04/12 04:30:13;;;;;;;23.40;18.10;;;;;;;1.83;73.60;100855.81;105794;1276;24298;-82
2022/04/12 04:32:41;;;;;;;23.80;17.10;;;;;;;1.83;73.85;100857.90;105387;1282;23898;-82
2022/04/12 04:35:08;;;;;;;23.30;19.00;;;;;;;1.81;73.65;100857.48;105594;1282;22758;-83
2022/04/12 04:37:46;;;;;;;17.10;14.60;;;;;;;1.79;73.69;100864.00;105510;1284;24297;-84
2022/04/12 04:40:15;;;;;;;23.40;16.00;;;;;;;1.74;73.58;100865.94;105337;1282;24765;-85
2022/04/12 04:42:46;;;;;;;24.00;17.50;;;;;;;1.76;73.89;100862.36;105291;1284;25242;-84
2022/04/12 04:45:18;;;;;;;21.70;17.70;;;;;;;1.82;74.03;100861.71;105316;1284;24233;-85
2022/04/12 04:47:53;;;;;;;21.00;16.30;;;;;;;1.90;74.09;100863.85;105477;1282;25450;-83
2022/04/12 04:50:24;;;;;;;23.80;17.90;;;;;;;1.94;74.01;100861.77;105936;1278;22984;-80
2022/04/12 04:52:52;;;;;;;20.60;16.90;;;;;;;2.01;74.01;100866.67;106133;1278;22596;-81
2022/04/12 04:55:21;;;;;;;23.50;18.10;;;;;;;2.07;73.89;100869.65;106954;1278;22824;-81
2022/04/12 04:57:48;;;;;;;20.10;16.00;;;;;;;2.17;73.95;100870.14;106372;1277;22534;-80
2022/04/12 05:00:17;;;;;;;24.30;16.90;;;;;;;2.23;73.72;100869.83;106589;1278;25506;-78
2022/04/12 05:02:50;;;;;;;25.30;18.20;;;;;;;2.30;73.62;100870.06;107684;1276;22576;-82
2022/04/12 05:05:17;;;;;;;22.90;18.30;;;;;;;2.37;73.58;100872.53;108101;1276;23112;-82
2022/04/12 05:07:47;;;;;;;20.90;17.00;;;;;;;2.42;73.49;100871.15;107969;1276;25425;-82
2022/04/12 05:10:16;;;;;;;24.40;18.00;;;;;;;2.48;73.25;100874.27;107945;1276;22608;-81
2022/04/12 05:12:44;;;;;;;22.00;17.00;;;;;;;2.50;73.13;100876.95;106724;1278;22725;-85
2022/04/12 05:15:12;;;;;;;22.70;17.80;;;;;;;2.48;73.06;100880.38;106102;1277;22571;-83
2022/04/12 05:17:40;;;;;;;20.10;16.80;;;;;;;2.55;73.20;100888.58;106247;1277;25409;-82
2022/04/12 05:20:11;;;;;;;23.30;16.80;;;;;;;2.66;73.16;100893.27;106125;1277;24092;-83
2022/04/12 05:22:39;;;;;;;19.80;16.70;;;;;;;2.76;72.97;100897.21;105859;1278;25441;-83
2022/04/12 05:25:06;;;;;;;22.10;16.50;;;;;;;2.82;72.77;100901.26;105865;1278;25862;-82
2022/04/12 05:27:35;;;;;;;21.80;16.70;;;;;;;2.85;72.60;100903.77;106126;1278;24381;-80
2022/04/12 05:30:07;;;;;;;20.80;17.50;;;;;;;2.92;72.61;100904.66;105045;1284;22627;-83
2022/04/12 05:32:36;;;;;;;23.30;17.60;;;;;;;3.03;72.62;100908.12;105212;1284;26519;-82
2022/04/12 05:35:06;;;;;;;24.00;17.20;;;;;;;3.12;72.47;100911.85;105361;1284;25375;-86
2022/04/12 05:37:52;;;;;;;21.70;15.70;;;;;;;3.25;72.37;100913.30;105491;1282;24772;-84
2022/04/12 05:40:21;;;;;;;21.80;16.30;;;;;;;3.36;72.13;100913.80;105303;1284;22756;-75
2022/04/12 05:42:51;;;;;;;24.20;15.70;;;;;;;3.44;71.76;100917.33;104857;1287;22719;-82
2022/04/12 05:45:19;;;;;;;25.10;16.80;;;;;;;3.48;71.69;100918.30;104503;1291;24059;-80
2022/04/12 05:47:52;;;;;;;24.60;16.50;;;;;;;3.59;71.48;100923.13;104761;1284;22567;-82
2022/04/12 05:50:21;;;;;;;21.80;15.20;;;;;;;3.61;70.83;100923.54;105203;1284;25375;-80
2022/04/12 05:52:52;;;;;;;21.10;15.40;;;;;;;3.60;70.75;100927.88;105099;1285;24310;-80
2022/04/12 05:55:21;;;;;;;25.90;16.50;;;;;;;3.68;70.80;100929.83;105458;1281;22601;-81
2022/04/12 05:58:03;;;;;;;29.10;16.80;;;;;;;3.77;70.60;100931.83;105333;1284;25328;-80
2022/04/12 06:00:32;;;;;;;21.90;16.20;;;;;;;3.85;70.33;100932.23;105618;1277;22714;-79
2022/04/12 06:03:02;;;;;;;30.00;17.40;;;;;;;3.90;70.09;100936.17;106337;1278;22697;-81
2022/04/12 06:05:32;;;;;;;24.00;16.50;;;;;;;3.94;69.61;100939.42;106972;1276;22680;-82
2022/04/12 06:08:00;;;;;;;28.80;16.10;;;;;;;3.93;69.45;100941.85;107143;1278;23900;-81
2022/04/12 06:10:28;;;;;;;22.50;15.30;;;;;;;3.95;69.39;100944.34;107184;1276;22641;-82
2022/04/12 06:12:59;;;;;;;24.20;16.40;;;;;;;4.00;69.30;100946.02;107665;1276;22701;-78
2022/04/12 06:15:27;;;;;;;19.80;14.60;;;;;;;4.07;69.25;100942.20;107211;1276;22601;-82
2022/04/12 06:17:54;;;;;;;26.80;16.20;;;;;;;4.20;69.12;100947.75;106956;1276;24264;-80
2022/04/12 06:20:22;;;;;;;27.40;13.90;;;;;;;4.29;68.86;100946.77;107301;1277;22631;-82
2022/04/12 06:22:49;;;;;;;22.80;15.00;;;;;;;4.37;68.62;100949.92;106224;1282;22561;-79
2022/04/12 06:25:19;;;;;;;30.00;15.80;;;;;;;4.43;68.57;100950.10;106111;1282;26669;-82
2022/04/12 06:27:53;;;;;;;26.60;16.00;;;;;;;4.48;68.22;100952.48;105969;1282;22550;-84
2022/04/12 06:30:23;;;;;;;33.70;17.60;;;;;;;4.49;68.16;100956.70;105995;1282;22718;-82
2022/04/12 06:32:52;;;;;;;19.60;15.20;;;;;;;4.53;68.23;100960.11;106707;1282;26647;-81
2022/04/12 06:35:20;;;;;;;24.40;15.50;;;;;;;4.62;68.03;100957.52;107079;1282;23155;-82
2022/04/12 06:37:52;;;;;;;23.80;14.30;;;;;;;4.68;67.78;100956.98;107554;1282;24256;-82
2022/04/12 06:40:20;;;;;;;25.90;13.30;;;;;;;4.75;67.36;100959.76;106571;1276;22567;-79
2022/04/12 06:42:48;;;;;;;21.80;13.40;;;;;;;4.76;67.02;100958.55;106219;1281;22541;-80
2022/04/12 06:45:15;;;;;;;24.20;14.10;;;;;;;4.77;66.62;100961.89;106300;1281;25356;-82
2022/04/12 06:47:43;;;;;;;26.20;15.00;;;;;;;4.81;66.87;100963.21;106114;1281;22567;-81
2022/04/12 06:50:11;;;;;;;33.90;15.30;;;;;;;4.82;66.41;100965.88;106059;1282;25248;-82
2022/04/12 06:52:39;;;;;;;28.10;13.40;;;;;;;4.82;66.43;100967.07;106043;1281;23191;-79
2022/04/12 06:55:07;;;;;;;29.00;14.40;;;;;;;4.87;66.58;100970.68;106151;1282;24807;-79
2022/04/12 06:57:35;;;;;;;40.60;15.70;;;;;;;5.01;66.66;100975.20;106051;1281;22564;-82
2022/04/12 07:00:07;;;;;;;22.10;13.50;;;;;;;5.16;66.48;100973.27;106091;1282;25372;-78
2022/04/12 07:02:36;;;;;;;31.90;12.80;;;;;;;5.29;65.93;100975.30;105744;1284;25286;-80
2022/04/12 07:05:05;;;;;;;29.70;10.60;;;;;;;5.40;65.64;100972.76;106227;1285;22885;-79
2022/04/12 07:07:35;;;;;;;17.00;9.00;;;;;;;5.51;65.29;100970.33;105545;1281;25360;-83
2022/04/12 07:10:02;;;;;;;20.80;10.00;;;;;;;5.58;63.80;100973.29;105548;1281;22654;-80
2022/04/12 07:12:29;;;;;;;20.70;9.90;;;;;;;5.62;63.91;100975.14;105506;1282;25651;-81
2022/04/12 07:14:56;;;;;;;19.60;10.20;;;;;;;5.68;63.61;100976.11;105237;1282;26544;-83
2022/04/12 07:17:24;;;;;;;25.90;10.30;;;;;;;5.76;63.20;100980.48;105259;1284;266303;-82
2022/04/12 07:19:51;;;;;;;18.80;9.70;;;;;;;5.83;63.03;100979.38;105300;1284;25366;-80
2022/04/12 07:22:18;;;;;;;28.90;9.30;;;;;;;5.89;62.82;100981.05;105631;1279;25367;-84
2022/04/12 07:24:45;;;;;;;15.10;8.80;;;;;;;5.95;62.55;100976.64;105505;1282;22550;-81
2022/04/12 07:27:13;;;;;;;18.00;8.50;;;;;;;6.01;62.28;100976.60;105378;1282;25432;-80
2022/04/12 07:29:40;;;;;;;23.70;8.70;;;;;;;6.10;62.15;100979.23;105679;1279;24295;-80
2022/04/12 07:32:07;;;;;;;14.40;8.30;;;;;;;6.18;61.85;100977.11;105544;1281;22528;-82
2022/04/12 07:34:34;;;;;;;19.50;9.10;;;;;;;6.28;61.59;100979.73;105442;1280;26544;-82
2022/04/12 07:37:03;;;;;;;19.30;8.70;;;;;;;6.35;61.37;100979.50;105542;1279;24308;-81
2022/04/12 07:39:30;;;;;;;22.70;8.50;;;;;;;6.46;61.19;100980.77;105860;1276;22560;-80
2022/04/12 07:41:57;;;;;;;14.20;7.50;;;;;;;6.56;61.00;100984.05;105241;1284;22541;-82
2022/04/12 07:44:24;;;;;;;10.20;5.90;;;;;;;6.68;60.61;100993.19;105302;1281;23391;-82
2022/04/12 07:46:51;;;;;;;8.40;5.00;;;;;;;6.72;59.15;100995.88;105440;1281;22644;-77
2022/04/12 07:49:19;;;;;;;7.40;4.10;;;;;;;6.74;58.68;100996.80;105054;1281;25317;-81
2022/04/12 07:51:47;;;;;;;7.60;5.10;;;;;;;6.77;57.37;100993.52;105521;1281;25769;-81
2022/04/12 07:54:15;;;;;;;4.90;3.00;;;;;;;6.82;57.48;100999.70;105388;1282;24019;-81
2022/04/12 07:56:42;;;;;;;6.60;3.80;;;;;;;6.89;56.68;101000.52;105188;1282;25646;-79
2022/04/12 07:59:10;;;;;;;9.70;4.10;;;;;;;6.98;56.16;100995.59;105248;1282;24656;-77
2022/04/12 08:01:38;;;;;;;8.60;3.00;;;;;;;7.03;55.23;101001.27;105926;1276;22537;-80
2022/04/12 08:04:05;;;;;;;10.70;4.00;;;;;;;7.07;54.52;100999.23;105966;1276;22547;-79
2022/04/12 08:06:32;;;;;;;9.00;4.60;;;;;;;7.11;55.24;100996.31;106097;1277;25371;-77
2022/04/12 08:09:00;;;;;;;10.10;5.00;;;;;;;7.17;55.35;100990.79;106011;1276;25238;-78
2022/04/12 08:11:27;;;;;;;7.00;3.90;;;;;;;7.28;55.30;100990.25;105654;1279;25329;-80
2022/04/12 08:13:55;;;;;;;8.30;3.80;;;;;;;7.47;55.07;100984.02;105485;1281;24504;-81
2022/04/12 08:16:22;;;;;;;6.90;4.30;;;;;;;7.67;54.82;100988.12;105405;1279;23813;-76
2022/04/12 08:18:50;;;;;;;4.80;3.50;;;;;;;7.79;54.10;100989.15;105623;1279;23494;-80
2022/04/12 08:21:33;;;;;;;9.10;3.30;;;;;;;7.82;53.25;100992.87;105535;1279;24228;-80
2022/04/12 08:24:00;;;;;;;6.60;3.50;;;;;;;7.87;52.91;100992.22;105351;1282;25839;-78
2022/04/12 08:26:27;;;;;;;4.90;3.30;;;;;;;7.97;52.92;100992.34;105223;1282;24232;-81
2022/04/12 08:28:56;;;;;;;7.20;3.40;;;;;;;8.04;51.50;100991.54;105234;1276;22682;-81
2022/04/12 08:31:23;;;;;;;4.60;2.80;;;;;;;8.06;52.22;100994.89;105622;1276;25321;-76
2022/04/12 08:33:52;;;;;;;6.50;2.90;;;;;;;8.09;51.42;100999.13;105768;1276;25866;-80
2022/04/12 08:36:21;;;;;;;11.20;2.50;;;;;;;8.15;51.73;101003.94;105782;1276;24273;-78
2022/04/12 08:38:53;;;;;;;2.60;2.00;;;;;;;8.21;50.72;101001.17;105793;1278;22645;-77
2022/04/12 08:41:26;;;;;;;5.60;2.50;;;;;;;8.16;49.15;101004.66;105627;1278;25248;-78
2022/04/12 08:43:58;;;;;;;5.20;3.30;;;;;;;8.00;49.25;101007.29;105861;1279;22563;-79
2022/04/12 08:46:27;;;;;;;6.80;3.20;;;;;;;8.07;49.74;101007.53;105792;1276;24247;-80
2022/04/12 08:48:57;;;;;;;5.50;2.50;;;;;;;8.29;49.95;101003.38;105517;1281;23963;-80
2022/04/12 08:51:28;;;;;;;5.00;2.90;;;;;;;8.48;48.95;100999.00;105834;1281;23351;-78
2022/04/12 08:53:58;;;;;;;5.10;2.60;;;;;;;8.66;48.40;101001.11;106068;1281;22611;-80
2022/04/12 08:56:27;;;;;;;4.10;2.50;;;;;;;8.74;47.75;100999.42;105948;1284;24462;-78
2022/04/12 08:58:55;;;;;;;6.50;3.30;;;;;;;8.74;47.63;101000.31;105579;1287;24357;-79
2022/04/12 09:01:38;;;;;;;6.50;3.20;;;;;;;8.91;48.04;100997.29;105671;1287;23940;-77
2022/04/12 09:04:07;;;;;;;6.20;2.80;;;;;;;9.21;48.25;100994.32;105396;1291;24197;-79
2022/04/12 09:06:34;;;;;;;7.30;3.10;;;;;;;9.50;47.21;100992.20;105097;1287;24414;-78
2022/04/12 09:09:12;;;;;;;3.70;2.90;;;;;;;9.59;46.39;100987.31;105254;1287;24238;-81
2022/04/12 09:11:42;;;;;;;4.60;2.90;;;;;;;9.68;46.63;100985.25;104585;1291;25474;-80
2022/04/12 09:14:13;;;;;;;4.20;2.60;;;;;;;9.80;46.11;100986.88;104575;1290;22526;-81
2022/04/12 09:16:44;;;;;;;6.10;2.80;;;;;;;9.85;45.70;100993.23;104501;1290;22560;-81
2022/04/12 09:19:12;;;;;;;3.90;3.00;;;;;;;9.69;45.11;100994.05;104194;1291;26526;-78
2022/04/12 09:21:47;;;;;;;4.60;3.20;;;;;;;9.49;45.68;100994.48;104606;1286;23982;-79
2022/04/12 09:24:22;;;;;;;5.70;3.40;;;;;;;9.38;45.97;100995.83;105215;1282;22546;-81
2022/04/12 09:26:57;;;;;;;4.10;3.20;;;;;;;9.22;46.22;100994.52;105334;1282;22551;-78
2022/04/12 09:29:30;;;;;;;5.90;3.30;;;;;;;9.21;46.92;100992.57;105464;1278;23950;-81
2022/04/12 09:31:58;;;;;;;3.70;2.70;;;;;;;9.45;46.93;100989.01;105906;1276;27047;-81
2022/04/12 09:34:26;;;;;;;3.60;2.50;;;;;;;9.63;45.42;100980.83;105793;1276;23801;-79
2022/04/12 09:37:30;;;;;;;4.30;2.50;;;;;;;9.81;44.62;100977.55;105253;1282;22556;-78
2022/04/12 09:40:00;;;;;;;;;;;;;;;10.21;45.01;100979.25;105418;1282;22522;-80
2022/04/12 09:42:43;;;;;;;3.50;2.40;;;;;;;10.57;44.46;100976.67;104878;1287;24088;-80
2022/04/12 09:45:13;;;;;;;7.00;3.00;;;;;;;10.55;43.13;100975.98;104377;1291;25261;-80
2022/04/12 09:47:43;;;;;;;3.70;3.20;;;;;;;10.43;43.47;100976.64;104402;1290;22579;-79
2022/04/12 09:50:33;;;;;;;6.70;3.90;;;;;;;10.30;43.68;100976.98;104119;1293;22579;-82
2022/04/12 09:53:12;;;;;;;5.70;3.50;;;;;;;10.12;43.42;100982.03;104322;1290;22637;-81
2022/04/12 09:55:41;;;;;;;5.80;3.40;;;;;;;9.94;43.95;100987.27;104735;1285;24238;-77
2022/04/12 09:58:13;;;;;;;6.50;3.40;;;;;;;9.92;44.34;100987.09;105152;1285;23978;-81
2022/04/12 10:00:45;;;;;;;5.40;3.10;;;;;;;10.30;44.49;100985.60;104338;1290;25391;-78
2022/04/12 10:03:15;;;;;;;4.80;2.80;;;;;;;10.71;43.83;100979.84;104826;1282;22888;-79
2022/04/12 10:05:43;;;;;;;4.30;3.10;;;;;;;10.83;43.24;100981.42;104593;1287;23944;-80
2022/04/12 10:08:12;;;;;;;3.80;2.70;;;;;;;10.83;42.67;100981.42;104705;1287;23986;-76
2022/04/12 10:10:44;;;;;;;7.90;3.30;;;;;;;10.78;41.37;100981.61;104596;1288;25271;-80
2022/04/12 10:13:14;;;;;;;7.20;2.90;;;;;;;11.11;41.94;100973.46;104603;1288;25381;-74
2022/04/12 10:15:42;;;;;;;7.50;3.70;;;;;;;11.58;41.49;100963.61;104668;1287;24306;-76
2022/04/12 10:18:12;;;;;;;4.60;3.10;;;;;;;12.06;41.21;100960.38;104769;1284;25271;-80
2022/04/12 10:20:40;;;;;;;4.60;2.80;;;;;;;12.34;40.13;100967.46;105166;1284;22676;-76
2022/04/12 10:23:19;;;;;;;3.80;3.00;;;;;;;12.24;38.95;100965.07;104928;1282;22546;-80
2022/04/12 10:25:55;;;;;;;5.80;3.50;;;;;;;12.04;38.23;100958.98;105888;1276;26408;-75
2022/04/12 10:28:25;;;;;;;6.60;3.50;;;;;;;11.79;39.34;100954.70;105831;1278;22573;-82
2022/04/12 10:31:02;;;;;;;5.30;3.70;;;;;;;11.70;39.94;100955.27;105829;1278;22674;-79
2022/04/12 10:34:05;;;;;;;5.20;3.80;;;;;;;11.57;39.98;100948.80;105882;1277;24231;-81
2022/04/12 10:37:15;;;;;;;7.70;3.80;;;;;;;11.48;40.21;100946.73;105824;1276;25954;-80
2022/04/12 10:40:04;;;;;;;6.90;4.00;;;;;;;11.82;39.59;100953.29;105336;1282;25493;-79
2022/04/12 10:42:33;;;;;;;3.90;3.50;;;;;;;12.06;39.47;100955.63;105365;1281;25837;-82
2022/04/12 10:45:04;;;;;;;6.50;4.10;;;;;;;12.25;39.11;100956.76;105411;1282;25264;-80
2022/04/12 10:47:56;;;;;;;4.90;3.60;;;;;;;12.45;38.72;100957.67;105483;1281;22871;-86
2022/04/12 10:50:23;;;;;;;4.40;3.30;;;;;;;12.79;37.93;100953.33;104884;1287;22914;-82
2022/04/12 10:52:50;;;;;;;6.50;3.60;;;;;;;13.08;37.59;100952.52;104340;1291;22571;-84
2022/04/12 10:55:27;;;;;;;4.10;2.80;;;;;;;13.45;37.32;100938.32;104331;1291;24296;-85
2022/04/12 10:58:12;;;;;;;3.50;2.70;;;;;;;13.82;37.21;100922.98;104629;1291;25452;-83
2022/04/12 11:00:43;;;;;;;6.40;2.90;;;;;;;14.02;35.68;100928.71;104435;1294;25267;-82
2022/04/12 11:03:12;;;;;;;5.40;2.90;;;;;;;13.87;35.21;100936.38;104230;1291;24280;-83
2022/04/12 11:06:01;;;;;;;4.30;3.00;;;;;;;13.60;35.23;100936.90;103833;1297;25383;-78
2022/04/12 11:08:35;;;;;;;3.20;2.70;;;;;;;13.32;35.07;100939.69;103497;1303;22602;-79
2022/04/12 11:11:09;;;;;;;7.30;3.20;;;;;;;13.22;34.18;100946.88;103747;1299;26535;-78
2022/04/12 11:13:43;;;;;;;4.70;2.80;;;;;;;13.15;34.82;100947.65;103976;1299;25392;-82
2022/04/12 11:16:12;;;;;;;7.50;3.40;;;;;;;13.36;35.04;100943.35;104100;1299;26536;-82
2022/04/12 11:18:51;;;;;;;4.10;2.70;;;;;;;13.66;35.21;100945.31;103585;1302;25521;-81
2022/04/12 11:21:40;;;;;;;3.90;2.90;;;;;;;14.06;35.41;100943.89;104332;1299;22870;-80
2022/04/12 11:24:12;;;;;;;3.10;2.60;;;;;;;14.40;33.84;100943.37;104807;1300;22878;-83
2022/04/12 11:26:50;;;;;;;6.70;2.90;;;;;;;14.37;33.60;100941.99;104296;1300;25890;-82
2022/04/12 11:29:20;;;;;;;5.00;2.60;;;;;;;14.61;33.19;100940.02;104024;1299;22564;-81